Key Lake Airport
CYKJ : now visible

Airfield :











YOU CAN JOIN US ON...

 
LOGIN :

Register | Disclaimer

   EN    FR    IT 

 









Legend :    VFR   Marginal VFR   IFR   Intensive IFR   Very Intensive IFR
Visi :
Ceiling :
>= 8 km
>= 3000ft
5 to 8 km
1000 to 3000 ft
1500m to 5 km
500 to 1000 ft
800 to 1500m
200 to 500 ft
< 800m
< 200 ft
Symbols :   Thunderstorms  Fog  Heavy snow  Heavy precipitations  Wind > 20 kt







- Airport Elevation : 1679 ft
- IATA code : YKJ


CYKJ - Key Lake

CURRENT METAR :
  • 251505Z AUTO 35008KT 9SM FEW006 OVC013 08/06 A2971 RMK SLP080

EXPIRED METARs :
  • 251456Z AUTO 01007KT 320V040 9SM SCT006 BKN009 OVC017 08/07 A2971 RMK SLP079
  • 251447Z AUTO 35006KT 6SM BR BKN006 OVC009 07/07 A2971 RMK SLP078
  • 251440Z AUTO 35006KT 5SM BR OVC006 07/06 A2971 RMK SLP078
  • 251425Z AUTO 36006KT 320V020 6SM BR OVC006 07/07 A2971 RMK SLP078
  • 251422Z AUTO 36005KT 310V020 5SM BR OVC006 07/07 A2971 RMK SLP078
  • 251400Z AUTO 35007KT 9SM OVC008 07/06 A2971 RMK SLP078
  • 251355Z AUTO 35007KT 320V040 9SM BKN010 OVC013 07/06 A2971 RMK SLP078
  • 251301Z AUTO 36006KT 9SM -RA OVC010 07/06 A2970 RMK SLP076
  • 251221Z AUTO 35007KT 9SM SCT008 BKN014 OVC025 07/07 A2969 RMK SLP073

TAF TAF CYKJ
Valid from the 25 at 13:00 until the 26 at 00:00 UTC


251238Z 2513/2524 36005KT 21/2SM -SHRA BR BKN005 OVC012
TEMPO 2513/2516 6SM BR SCT005 OVC012
FM251600 36010KT P6SM -SHRA SCT006 OVC010
TEMPO 2516/2524 4SM -SHRA BR OVC006 RMK FCST BASED ON AUTO OBS. NXT FCST BY 251900Z
CZEG FIR / North America



MET'MAP, your aeronautical weather chart ! - Copyright ORBIFLY December 2007 - Disclaimer

ORBIFLY MET'MAP TEAM :

Programming & Development : Alexandra Zaïnal
Concept & Development : Baudouin d'Aumeries
Co-Development & Prog : Marc-Olivier Méhu
Technical & hardware support : Manuel Goepfert

Contact : metmap@orbifly.com




SOURCES & CREDITS :

   NOAA       Earth
Advisory